Altura, Minnesota
Current Conditions -  °F | °C
As of 8:35 AM on Tuesday 27 Jan 2015 (Local Time) from KONA Reporting Station
Overcast Overcast  
Wind Chill: 25°   Ceiling: 2000
Heat Index: 30°   Visibility: 10mi
Dew Point: 25°   Wind: 5mph
Humidity: 80%   Direction: 60°ENE
Pressure: 30.17"   Gusts: NA
Location:  44.07°N, 91.94°W
Report Text: KONA 271435Z AUTO 06004KT 10SM OVC020 M01/M04 A3017 RMK AO2
Loading
Personal Weather Stations






























Interactive Weather Map New forecast layout! Learn more

10-Day Weather Forecast

Advertisements
Track Severe Weather on mobile